Grover Beach, CA (93433)

01:31 PDT le 02 septembre 2015 (GMT -0700)
Grover Heights | | Change Station
CLOSE
Current Station
Stations météorologiques personnelles
Location: Grover Beach, CA
Altitude: 112 ft
Stations météo à proximité

Alt. 112 ft 35.13 °N, 120.62 °W | Updated 2 minutes ago

Partiellement nuageux
Partiellement nuageux
59.4 ° F
Paraît 59.4 ° F
N
2.2
Vent Variable Vent de NNE

Aujourd'hui
Haut(e) -- | Bas -- ° F
--% Risque de précip.
Hier
Haut(e) -- | Bas -- ° F
Precip. -- pouce
6:35 AM 7:28 PM
Lune gibbeuse décroissante, 82% visible
Pression 29.96 pouce
Visibilité 10.0 Miles terrestres
Nuages Ciel dégagé
Point de rosée 57 ° F
Humidité 93%
Précipitations 0.00 pouce
Profondeur de la couche neigeuse Non disponible.
UV 0 sur 12
Pollen 8.60 sur 12
Qualité de l'air Non disponible.
Flu Activity Non disponible.
METAR KSBP 020756Z AUTO 25003KT 10SM CLR 16/13 A2996 RMK AO2 SLP143 T01610133 402500156
Pression 29.96 pouce
Visibilité 10.0 Miles terrestres
Nuages Ciel dégagé
Point de rosée 57 ° F
Humidité 93%
Précipitations 0.00 pouce
Profondeur de la couche neigeuse Non disponible.
UV 0 sur 12
Pollen 8.60 sur 12
Qualité de l'air Non disponible.
Flu Activity Non disponible.
METAR KSBP 020756Z AUTO 25003KT 10SM CLR 16/13 A2996 RMK AO2 SLP143 T01610133 402500156

10-Day Weather Forecast

×

Almanac

Astronomie

Sep. 02, 2015 Lever Coucher
Temps réel
Crépuscule civil
Crépuscule nautique
Crépuscule astronomique
Lune
Durée de lumière visible
Longueur du jour
Tomorrow will be .
, % of the Moon is Illuminated

Extrêmes aujourd'hui

State Highs State Lows

Community

WunderPhotos

Upload Photos

1,851,728 Photos téléchargées !

WunderBlogs® & News

Nearby

Qualité de l'air

  Qualité de l'air Indice de la qualité de l'air Polluant
Not available.

Épaisseur de neige

Station Depth Altitude

Activité sismique

Ville Distance Mag. Time & Date
Minimum magnitude displayed is 2.5.

Températures des eaux côtières

Lieu Température

Stations

Stations météo à proximité

Emplacement de la station Température Refroidissement éolien Point de rosée Humidité Vent Precip. Alt. Mise à jour Type